createdAt,value
2018-08-13T17:24:34.544Z,28.03
2018-08-13T17:27:02.866Z,27.94
2018-08-13T17:29:31.146Z,27.27
2018-08-13T17:32:19.847Z,27.14
2018-08-13T17:34:48.141Z,27.01
2018-08-13T17:37:16.415Z,27.49
2018-08-13T17:39:44.713Z,27.56
2018-08-13T17:42:12.975Z,27.75
2018-08-13T17:44:41.241Z,26.87
2018-08-13T17:47:09.754Z,26.99
2018-08-13T17:49:38.071Z,27.13
2018-08-13T17:52:06.396Z,27.48
2018-08-13T17:54:34.708Z,27.93
2018-08-13T17:59:52.606Z,27.63
2018-08-13T18:02:21.627Z,27.46
2018-08-13T18:04:50.433Z,27.35
2018-08-13T18:08:36.432Z,27.15
2018-08-13T18:09:40.393Z,27.23
2018-08-13T18:10:44.333Z,27.46
2018-08-13T18:11:48.231Z,26.99
2018-08-13T18:12:52.137Z,26.90
2018-08-13T18:13:56.135Z,27.25
2018-08-13T18:15:00.086Z,27.16
2018-08-13T18:16:04.109Z,27.10
2018-08-13T18:17:08.198Z,27.30
2018-08-13T18:18:12.088Z,27.07
2018-08-13T18:19:16.025Z,26.71
2018-08-13T18:20:19.990Z,27.03
2018-08-13T18:21:23.911Z,26.99
2018-08-13T18:22:27.818Z,27.05
2018-08-13T18:23:31.753Z,26.99
2018-08-13T18:24:35.690Z,27.44
2018-08-13T18:25:39.686Z,26.94
2018-08-13T18:26:43.572Z,26.21
2018-08-13T18:27:48.809Z,26.45
2018-08-13T18:28:52.701Z,26.78
2018-08-13T18:29:57.048Z,26.82
2018-08-13T18:31:00.932Z,26.28
2018-08-13T18:32:05.078Z,26.37
2018-08-13T18:33:09.001Z,26.54
2018-08-13T18:34:12.916Z,26.41
2018-08-13T18:35:17.001Z,26.39
2018-08-13T18:36:20.908Z,26.68
2018-08-13T18:37:24.993Z,26.61
2018-08-13T18:38:28.927Z,26.38
2018-08-13T18:39:32.832Z,26.42
2018-08-13T18:40:36.953Z,26.46
2018-08-13T18:41:40.935Z,26.51
2018-08-13T18:42:45.045Z,26.66
2018-08-13T18:43:48.921Z,26.53
2018-08-13T18:44:52.793Z,26.91
2018-08-13T18:48:47.700Z,26.76
2018-08-13T18:51:11.639Z,27.15
2018-08-13T18:53:35.697Z,27.32
2018-08-13T18:55:59.610Z,27.46
2018-08-13T18:58:23.534Z,27.09
2018-08-13T19:00:51.475Z,27.55
2018-08-13T19:03:15.420Z,27.35
2018-08-13T19:05:39.373Z,27.31
2018-08-13T19:08:03.314Z,27.48
2018-08-13T19:10:27.270Z,27.01
2018-08-13T19:12:51.159Z,26.85
2018-08-13T19:15:18.994Z,26.27
2018-08-13T19:17:42.986Z,26.55
2018-08-13T19:20:11.546Z,26.74
2018-08-13T19:22:35.431Z,26.88
2018-08-13T19:24:59.535Z,26.62
2018-08-13T19:27:23.425Z,29.90
2018-08-13T19:29:47.642Z,25.48
2018-08-13T19:32:11.735Z,24.84
2018-08-13T19:34:35.681Z,24.46
2018-08-13T19:36:59.605Z,24.51
2018-08-13T19:39:23.511Z,24.84
2018-08-13T19:41:47.468Z,24.61
2018-08-13T19:44:11.361Z,24.92
2018-08-13T19:46:35.284Z,25.17
2018-08-13T19:48:59.209Z,25.05
2018-08-13T19:51:23.136Z,25.13
2018-08-13T19:53:47.049Z,25.13
2018-08-13T19:56:10.952Z,24.80
2018-08-13T19:58:34.828Z,25.16
2018-08-13T20:00:58.734Z,24.88
2018-08-13T20:03:22.609Z,24.91
2018-08-13T20:05:46.541Z,24.79
2018-08-13T20:08:10.691Z,24.85
2018-08-13T20:10:34.564Z,24.65
2018-08-13T20:12:58.556Z,24.68
2018-08-13T20:15:22.490Z,24.39
2018-08-13T20:17:46.419Z,24.32
2018-08-13T20:20:14.713Z,24.40
2018-08-13T20:22:39.555Z,24.36
2018-08-13T20:25:03.460Z,24.58
2018-08-13T20:27:27.395Z,24.55
2018-08-13T20:29:51.325Z,24.66
2018-08-13T20:32:15.226Z,24.66
2018-08-13T20:34:39.180Z,24.71
2018-08-13T20:37:03.152Z,24.67
2018-08-13T20:39:27.024Z,24.30
2018-08-13T20:41:50.933Z,24.65
2018-08-13T20:44:14.870Z,24.71
2018-08-13T20:46:39.095Z,24.43
2018-08-13T20:49:02.948Z,24.60
2018-08-13T20:51:26.854Z,24.55
2018-08-13T20:53:50.718Z,24.58
2018-08-13T20:56:14.601Z,24.58
2018-08-13T20:58:38.525Z,24.68
2018-08-13T21:01:02.440Z,24.60
2018-08-13T21:03:26.383Z,24.46
2018-08-13T21:05:50.313Z,24.34
2018-08-13T21:08:14.196Z,24.13
2018-08-13T21:10:38.089Z,23.87
2018-08-13T21:13:02.038Z,24.41
2018-08-13T21:15:25.916Z,24.45
2018-08-13T21:17:49.798Z,24.34
2018-08-13T21:20:23.061Z,24.44
2018-08-13T21:22:47.026Z,24.33
2018-08-13T21:25:12.824Z,23.92
2018-08-13T21:27:36.708Z,23.80
2018-08-13T21:30:00.618Z,23.90
2018-08-13T21:32:24.505Z,23.58
2018-08-13T21:34:48.453Z,23.66
2018-08-13T21:37:12.320Z,23.83
2018-08-13T21:39:36.203Z,23.80
2018-08-13T21:42:00.101Z,23.99
2018-08-13T21:44:24.025Z,23.50
2018-08-13T21:46:47.917Z,23.67
2018-08-13T21:49:11.803Z,23.53
2018-08-13T21:51:35.679Z,23.13
2018-08-13T21:53:59.549Z,23.37
2018-08-13T21:56:23.456Z,22.90
2018-08-13T21:58:47.332Z,22.83
2018-08-13T22:01:16.651Z,22.75
2018-08-13T22:03:40.563Z,22.17
2018-08-13T22:06:04.467Z,22.25
2018-08-13T22:08:28.350Z,21.86
2018-08-13T22:10:52.277Z,21.73
2018-08-13T22:13:16.150Z,21.65
2018-08-13T22:15:40.010Z,21.63
2018-08-13T22:18:06.408Z,21.55
2018-08-13T22:20:31.279Z,21.79
2018-08-13T22:22:56.384Z,21.83
2018-08-13T22:25:22.281Z,21.47
2018-08-13T22:27:46.219Z,21.27
2018-08-13T22:30:10.654Z,21.05
2018-08-13T22:32:35.230Z,20.56
2018-08-13T22:34:59.172Z,20.70
2018-08-13T22:37:23.059Z,20.74
2018-08-13T22:39:46.992Z,20.75
2018-08-13T22:42:10.869Z,21.18
2018-08-13T22:44:34.739Z,20.72
2018-08-13T22:46:58.651Z,20.74
2018-08-13T22:49:22.534Z,20.45
2018-08-13T22:51:46.406Z,21.05
2018-08-13T22:54:10.322Z,20.99
2018-08-13T22:56:34.200Z,21.51
2018-08-13T22:58:58.078Z,21.71
2018-08-13T23:01:21.984Z,21.84
2018-08-13T23:03:45.858Z,21.85
2018-08-13T23:06:16.271Z,21.57
2018-08-13T23:08:40.256Z,21.65
2018-08-13T23:11:04.119Z,21.03
2018-08-13T23:13:29.004Z,21.42
2018-08-13T23:15:52.897Z,21.29
2018-08-13T23:18:16.762Z,21.51
2018-08-13T23:20:40.600Z,21.25
2018-08-13T23:23:04.495Z,21.09
2018-08-13T23:25:28.898Z,21.31
2018-08-13T23:27:53.820Z,21.11
2018-08-13T23:30:17.783Z,21.76
2018-08-13T23:32:41.672Z,21.40
2018-08-13T23:35:05.646Z,21.11
2018-08-13T23:37:29.562Z,21.27
2018-08-13T23:39:53.437Z,20.75
2018-08-13T23:42:17.287Z,20.95
2018-08-13T23:44:41.231Z,20.44
2018-08-13T23:47:06.056Z,20.84
2018-08-13T23:49:29.899Z,20.97
2018-08-13T23:51:53.796Z,20.91
2018-08-13T23:54:17.732Z,20.70
2018-08-13T23:56:41.584Z,20.76
2018-08-13T23:59:05.479Z,20.76
